sensor_id;sensor_type;location;lat;lon;timestamp;pressure;altitude;pressure_sealevel;temperature;humidity
77450;BME280;66536;53.150;18.172;2024-03-02T00:00:26;100884.20;;;8.34;88.71
77450;BME280;66536;53.150;18.172;2024-03-02T00:03:13;100886.61;;;8.33;88.89
77450;BME280;66536;53.150;18.172;2024-03-02T00:05:40;100883.07;;;8.32;88.77
77450;BME280;66536;53.150;18.172;2024-03-02T00:08:06;100886.46;;;8.31;88.98
77450;BME280;66536;53.150;18.172;2024-03-02T00:10:38;100880.99;;;8.31;89.08
77450;BME280;66536;53.150;18.172;2024-03-02T00:13:06;100879.71;;;8.29;89.07
77450;BME280;66536;53.150;18.172;2024-03-02T00:18:24;100880.07;;;8.26;89.30
77450;BME280;66536;53.150;18.172;2024-03-02T00:20:54;100876.64;;;8.24;89.38
77450;BME280;66536;53.150;18.172;2024-03-02T00:23:21;100877.73;;;8.24;89.55
77450;BME280;66536;53.150;18.172;2024-03-02T00:25:49;100877.09;;;8.23;89.71
77450;BME280;66536;53.150;18.172;2024-03-02T00:28:21;100877.97;;;8.23;89.75
77450;BME280;66536;53.150;18.172;2024-03-02T00:30:58;100874.17;;;8.23;89.70
77450;BME280;66536;53.150;18.172;2024-03-02T00:33:27;100870.14;;;8.23;89.74
77450;BME280;66536;53.150;18.172;2024-03-02T00:35:54;100870.13;;;8.21;89.85
77450;BME280;66536;53.150;18.172;2024-03-02T00:38:21;100870.29;;;8.20;89.99
77450;BME280;66536;53.150;18.172;2024-03-02T00:40:48;100868.60;;;8.19;90.18
77450;BME280;66536;53.150;18.172;2024-03-02T00:46:11;100863.02;;;8.17;90.26
77450;BME280;66536;53.150;18.172;2024-03-02T00:48:40;100868.41;;;8.15;90.35
77450;BME280;66536;53.150;18.172;2024-03-02T00:51:09;100870.91;;;8.14;90.49
77450;BME280;66536;53.150;18.172;2024-03-02T00:53:36;100876.23;;;8.16;90.64
77450;BME280;66536;53.150;18.172;2024-03-02T00:56:03;100878.79;;;8.16;90.74
77450;BME280;66536;53.150;18.172;2024-03-02T00:58:29;100875.58;;;8.14;90.71
77450;BME280;66536;53.150;18.172;2024-03-02T01:00:55;100877.34;;;8.11;90.72
77450;BME280;66536;53.150;18.172;2024-03-02T01:03:21;100874.77;;;8.10;90.86
77450;BME280;66536;53.150;18.172;2024-03-02T01:05:47;100867.48;;;8.09;90.94
77450;BME280;66536;53.150;18.172;2024-03-02T01:08:13;100857.13;;;8.08;90.89
77450;BME280;66536;53.150;18.172;2024-03-02T01:10:39;100854.48;;;8.07;90.95
77450;BME280;66536;53.150;18.172;2024-03-02T01:13:05;100847.45;;;8.08;91.08
77450;BME280;66536;53.150;18.172;2024-03-02T01:15:31;100846.90;;;8.09;91.02
77450;BME280;66536;53.150;18.172;2024-03-02T01:17:58;100843.10;;;8.08;91.02
77450;BME280;66536;53.150;18.172;2024-03-02T01:20:25;100839.13;;;8.09;91.13
77450;BME280;66536;53.150;18.172;2024-03-02T01:22:51;100836.70;;;8.07;90.93
77450;BME280;66536;53.150;18.172;2024-03-02T01:25:17;100837.48;;;8.05;90.97
77450;BME280;66536;53.150;18.172;2024-03-02T01:27:44;100837.11;;;8.05;91.00
77450;BME280;66536;53.150;18.172;2024-03-02T01:30:10;100838.92;;;8.04;91.04
77450;BME280;66536;53.150;18.172;2024-03-02T01:32:38;100838.48;;;8.02;91.12
77450;BME280;66536;53.150;18.172;2024-03-02T01:35:05;100833.29;;;8.02;91.24
77450;BME280;66536;53.150;18.172;2024-03-02T01:37:33;100835.27;;;8.01;91.05
77450;BME280;66536;53.150;18.172;2024-03-02T01:39:59;100823.58;;;8.01;91.25
77450;BME280;66536;53.150;18.172;2024-03-02T01:42:25;100819.65;;;8.02;91.21
77450;BME280;66536;53.150;18.172;2024-03-02T01:44:51;100814.58;;;8.03;91.13
77450;BME280;66536;53.150;18.172;2024-03-02T01:47:17;100811.69;;;8.03;91.16
77450;BME280;66536;53.150;18.172;2024-03-02T01:49:44;100807.67;;;8.02;91.10
77450;BME280;66536;53.150;18.172;2024-03-02T01:52:10;100805.69;;;8.01;91.02
77450;BME280;66536;53.150;18.172;2024-03-02T01:54:37;100806.42;;;8.00;90.98
77450;BME280;66536;53.150;18.172;2024-03-02T01:57:03;100808.18;;;7.98;91.03
77450;BME280;66536;53.150;18.172;2024-03-02T01:59:30;100814.90;;;7.98;91.16
77450;BME280;66536;53.150;18.172;2024-03-02T02:01:56;100820.93;;;7.99;91.28
77450;BME280;66536;53.150;18.172;2024-03-02T02:04:22;100815.98;;;8.00;91.31
77450;BME280;66536;53.150;18.172;2024-03-02T02:06:53;100814.64;;;8.00;91.11
77450;BME280;66536;53.150;18.172;2024-03-02T02:09:19;100818.70;;;7.99;91.31
77450;BME280;66536;53.150;18.172;2024-03-02T02:11:45;100815.60;;;7.97;91.35
77450;BME280;66536;53.150;18.172;2024-03-02T02:14:12;100809.09;;;7.97;91.39
77450;BME280;66536;53.150;18.172;2024-03-02T02:16:38;100811.91;;;7.97;91.23
77450;BME280;66536;53.150;18.172;2024-03-02T02:19:04;100816.30;;;7.95;91.31
77450;BME280;66536;53.150;18.172;2024-03-02T02:21:31;100823.23;;;7.90;91.17
77450;BME280;66536;53.150;18.172;2024-03-02T02:23:57;100823.70;;;7.85;91.32
77450;BME280;66536;53.150;18.172;2024-03-02T02:26:23;100817.17;;;7.78;91.30
77450;BME280;66536;53.150;18.172;2024-03-02T02:28:49;100813.36;;;7.68;91.38
77450;BME280;66536;53.150;18.172;2024-03-02T02:31:16;100815.14;;;7.61;91.44
77450;BME280;66536;53.150;18.172;2024-03-02T02:33:42;100815.07;;;7.53;91.75
77450;BME280;66536;53.150;18.172;2024-03-02T02:36:08;100817.82;;;7.47;91.74
77450;BME280;66536;53.150;18.172;2024-03-02T02:38:38;100820.36;;;7.43;92.07
77450;BME280;66536;53.150;18.172;2024-03-02T02:41:06;100818.09;;;7.44;92.30
77450;BME280;66536;53.150;18.172;2024-03-02T02:43:32;100818.23;;;7.45;92.14
77450;BME280;66536;53.150;18.172;2024-03-02T02:45:58;100819.56;;;7.47;92.38
77450;BME280;66536;53.150;18.172;2024-03-02T02:48:24;100817.44;;;7.49;92.28
77450;BME280;66536;53.150;18.172;2024-03-02T02:50:51;100818.42;;;7.51;92.40
77450;BME280;66536;53.150;18.172;2024-03-02T02:53:17;100815.10;;;7.53;92.21
77450;BME280;66536;53.150;18.172;2024-03-02T02:55:43;100815.69;;;7.52;92.20
77450;BME280;66536;53.150;18.172;2024-03-02T02:58:09;100815.52;;;7.48;92.12
77450;BME280;66536;53.150;18.172;2024-03-02T03:00:35;100815.41;;;7.41;92.03
77450;BME280;66536;53.150;18.172;2024-03-02T03:03:02;100812.73;;;7.34;92.07
77450;BME280;66536;53.150;18.172;2024-03-02T03:05:28;100814.34;;;7.26;92.27
77450;BME280;66536;53.150;18.172;2024-03-02T03:07:54;100813.96;;;7.18;92.32
77450;BME280;66536;53.150;18.172;2024-03-02T03:10:20;100821.89;;;7.08;92.45
77450;BME280;66536;53.150;18.172;2024-03-02T03:12:49;100816.58;;;7.00;92.65
77450;BME280;66536;53.150;18.172;2024-03-02T03:15:15;100815.64;;;6.92;92.85
77450;BME280;66536;53.150;18.172;2024-03-02T03:17:42;100820.80;;;6.84;92.92
77450;BME280;66536;53.150;18.172;2024-03-02T03:20:08;100820.37;;;6.78;93.20
77450;BME280;66536;53.150;18.172;2024-03-02T03:22:37;100826.20;;;6.74;93.44
77450;BME280;66536;53.150;18.172;2024-03-02T03:25:03;100827.28;;;6.74;93.71
77450;BME280;66536;53.150;18.172;2024-03-02T03:27:29;100824.86;;;6.75;93.71
77450;BME280;66536;53.150;18.172;2024-03-02T03:29:55;100824.74;;;6.77;93.80
77450;BME280;66536;53.150;18.172;2024-03-02T03:32:22;100823.86;;;6.80;93.79
77450;BME280;66536;53.150;18.172;2024-03-02T03:34:48;100814.77;;;6.83;93.61
77450;BME280;66536;53.150;18.172;2024-03-02T03:37:14;100808.77;;;6.86;93.71
77450;BME280;66536;53.150;18.172;2024-03-02T03:39:41;100809.67;;;6.90;93.56
77450;BME280;66536;53.150;18.172;2024-03-02T03:42:07;100806.60;;;6.95;93.57
77450;BME280;66536;53.150;18.172;2024-03-02T03:44:33;100797.07;;;6.98;93.65
77450;BME280;66536;53.150;18.172;2024-03-02T03:46:59;100799.52;;;7.01;93.45
77450;BME280;66536;53.150;18.172;2024-03-02T03:49:27;100807.02;;;7.02;93.46
77450;BME280;66536;53.150;18.172;2024-03-02T03:51:54;100804.98;;;7.04;93.39
77450;BME280;66536;53.150;18.172;2024-03-02T03:54:20;100802.14;;;7.06;93.22
77450;BME280;66536;53.150;18.172;2024-03-02T03:56:46;100802.26;;;7.08;93.24
77450;BME280;66536;53.150;18.172;2024-03-02T03:59:12;100798.78;;;7.10;93.17
77450;BME280;66536;53.150;18.172;2024-03-02T04:01:38;100793.11;;;7.12;93.08
77450;BME280;66536;53.150;18.172;2024-03-02T04:04:04;100790.98;;;7.15;93.07
77450;BME280;66536;53.150;18.172;2024-03-02T04:06:30;100794.05;;;7.18;92.99
77450;BME280;66536;53.150;18.172;2024-03-02T04:08:56;100794.27;;;7.21;92.81
77450;BME280;66536;53.150;18.172;2024-03-02T04:11:22;100797.14;;;7.22;92.96
77450;BME280;66536;53.150;18.172;2024-03-02T04:13:48;100791.75;;;7.24;92.71
77450;BME280;66536;53.150;18.172;2024-03-02T04:16:15;100790.27;;;7.27;92.81
77450;BME280;66536;53.150;18.172;2024-03-02T04:18:41;100790.64;;;7.28;92.71
77450;BME280;66536;53.150;18.172;2024-03-02T04:21:07;100789.39;;;7.30;92.69
77450;BME280;66536;53.150;18.172;2024-03-02T04:23:33;100787.86;;;7.32;92.68
77450;BME280;66536;53.150;18.172;2024-03-02T04:25:59;100783.58;;;7.34;92.46
77450;BME280;66536;53.150;18.172;2024-03-02T04:28:25;100785.25;;;7.36;92.59
77450;BME280;66536;53.150;18.172;2024-03-02T04:30:51;100791.02;;;7.37;92.59
77450;BME280;66536;53.150;18.172;2024-03-02T04:33:20;100792.98;;;7.40;92.56
77450;BME280;66536;53.150;18.172;2024-03-02T04:35:46;100788.04;;;7.41;92.48
77450;BME280;66536;53.150;18.172;2024-03-02T04:38:12;100779.29;;;7.41;92.34
77450;BME280;66536;53.150;18.172;2024-03-02T04:40:38;100773.50;;;7.41;92.21
77450;BME280;66536;53.150;18.172;2024-03-02T04:43:04;100776.75;;;7.41;92.37
77450;BME280;66536;53.150;18.172;2024-03-02T04:45:30;100783.61;;;7.41;92.16
77450;BME280;66536;53.150;18.172;2024-03-02T04:47:56;100786.85;;;7.41;92.16
77450;BME280;66536;53.150;18.172;2024-03-02T04:50:22;100796.02;;;7.42;92.26
77450;BME280;66536;53.150;18.172;2024-03-02T04:52:48;100791.94;;;7.43;92.15
77450;BME280;66536;53.150;18.172;2024-03-02T04:55:14;100806.01;;;7.43;92.09
77450;BME280;66536;53.150;18.172;2024-03-02T04:57:50;100796.15;;;7.43;92.23
77450;BME280;66536;53.150;18.172;2024-03-02T05:00:20;100794.02;;;7.44;92.17
77450;BME280;66536;53.150;18.172;2024-03-02T05:02:46;100798.95;;;7.44;92.13
77450;BME280;66536;53.150;18.172;2024-03-02T05:05:13;100799.54;;;7.45;92.22
77450;BME280;66536;53.150;18.172;2024-03-02T05:07:41;100802.53;;;7.44;92.02
77450;BME280;66536;53.150;18.172;2024-03-02T05:10:10;100801.11;;;7.44;92.09
77450;BME280;66536;53.150;18.172;2024-03-02T05:12:37;100808.34;;;7.45;92.11
77450;BME280;66536;53.150;18.172;2024-03-02T05:15:18;100808.58;;;7.46;91.99
77450;BME280;66536;53.150;18.172;2024-03-02T05:17:44;100809.83;;;7.47;92.12
77450;BME280;66536;53.150;18.172;2024-03-02T05:20:11;100821.98;;;7.47;92.06
77450;BME280;66536;53.150;18.172;2024-03-02T05:22:37;100826.53;;;7.48;92.11
77450;BME280;66536;53.150;18.172;2024-03-02T05:25:04;100825.05;;;7.49;92.10
77450;BME280;66536;53.150;18.172;2024-03-02T05:27:30;100822.99;;;7.50;92.03
77450;BME280;66536;53.150;18.172;2024-03-02T05:29:59;100830.34;;;7.50;92.16
77450;BME280;66536;53.150;18.172;2024-03-02T05:32:25;100830.23;;;7.51;92.12
77450;BME280;66536;53.150;18.172;2024-03-02T05:34:51;100829.91;;;7.51;92.00
77450;BME280;66536;53.150;18.172;2024-03-02T05:37:18;100828.23;;;7.50;91.90
77450;BME280;66536;53.150;18.172;2024-03-02T05:39:44;100828.04;;;7.51;91.95
77450;BME280;66536;53.150;18.172;2024-03-02T05:42:10;100830.23;;;7.51;92.03
77450;BME280;66536;53.150;18.172;2024-03-02T05:44:36;100831.17;;;7.52;91.86
77450;BME280;66536;53.150;18.172;2024-03-02T05:47:03;100828.38;;;7.52;91.67
77450;BME280;66536;53.150;18.172;2024-03-02T05:49:29;100836.98;;;7.53;91.63
77450;BME280;66536;53.150;18.172;2024-03-02T05:51:56;100843.93;;;7.54;91.72
77450;BME280;66536;53.150;18.172;2024-03-02T05:54:22;100841.95;;;7.55;91.88
77450;BME280;66536;53.150;18.172;2024-03-02T05:56:48;100851.26;;;7.57;91.76
77450;BME280;66536;53.150;18.172;2024-03-02T05:59:14;100853.69;;;7.59;91.72
77450;BME280;66536;53.150;18.172;2024-03-02T06:01:43;100856.17;;;7.59;91.61
77450;BME280;66536;53.150;18.172;2024-03-02T06:04:10;100848.98;;;7.59;91.70
77450;BME280;66536;53.150;18.172;2024-03-02T06:06:37;100850.73;;;7.60;91.55
77450;BME280;66536;53.150;18.172;2024-03-02T06:09:04;100857.73;;;7.61;91.54
77450;BME280;66536;53.150;18.172;2024-03-02T06:11:37;100861.02;;;7.63;91.52
77450;BME280;66536;53.150;18.172;2024-03-02T06:14:04;100865.71;;;7.64;91.46
77450;BME280;66536;53.150;18.172;2024-03-02T06:16:30;100857.94;;;7.68;91.49
77450;BME280;66536;53.150;18.172;2024-03-02T06:18:56;100861.27;;;7.71;91.43
77450;BME280;66536;53.150;18.172;2024-03-02T06:21:24;100862.64;;;7.74;91.32
77450;BME280;66536;53.150;18.172;2024-03-02T06:23:50;100861.25;;;7.77;91.33
77450;BME280;66536;53.150;18.172;2024-03-02T06:26:17;100858.30;;;7.80;91.12
77450;BME280;66536;53.150;18.172;2024-03-02T06:28:44;100867.96;;;7.84;90.96
77450;BME280;66536;53.150;18.172;2024-03-02T06:31:10;100865.85;;;7.86;91.17
77450;BME280;66536;53.150;18.172;2024-03-02T06:33:37;100864.36;;;7.88;91.07
77450;BME280;66536;53.150;18.172;2024-03-02T06:36:03;100865.92;;;7.89;91.00
77450;BME280;66536;53.150;18.172;2024-03-02T06:38:30;100864.55;;;7.91;90.82
77450;BME280;66536;53.150;18.172;2024-03-02T06:40:59;100866.81;;;7.90;91.00
77450;BME280;66536;53.150;18.172;2024-03-02T06:43:25;100866.14;;;7.91;90.89
77450;BME280;66536;53.150;18.172;2024-03-02T06:45:51;100864.84;;;7.91;90.86
77450;BME280;66536;53.150;18.172;2024-03-02T06:48:18;100861.58;;;7.91;90.83
77450;BME280;66536;53.150;18.172;2024-03-02T06:50:47;100864.63;;;7.92;90.64
77450;BME280;66536;53.150;18.172;2024-03-02T06:53:14;100861.92;;;7.94;90.80
77450;BME280;66536;53.150;18.172;2024-03-02T06:55:43;100852.29;;;7.98;90.81
77450;BME280;66536;53.150;18.172;2024-03-02T06:58:13;100844.48;;;8.06;90.55
77450;BME280;66536;53.150;18.172;2024-03-02T07:00:41;100841.65;;;8.11;90.16
77450;BME280;66536;53.150;18.172;2024-03-02T07:03:07;100846.30;;;8.16;90.06
77450;BME280;66536;53.150;18.172;2024-03-02T07:05:34;100855.56;;;8.21;90.04
77450;BME280;66536;53.150;18.172;2024-03-02T07:08:02;100868.46;;;8.23;89.99
77450;BME280;66536;53.150;18.172;2024-03-02T07:10:29;100867.55;;;8.26;89.77
77450;BME280;66536;53.150;18.172;2024-03-02T07:12:55;100858.75;;;8.28;89.67
77450;BME280;66536;53.150;18.172;2024-03-02T07:15:21;100865.98;;;8.34;89.58
77450;BME280;66536;53.150;18.172;2024-03-02T07:18:07;100862.94;;;8.40;89.49
77450;BME280;66536;53.150;18.172;2024-03-02T07:20:33;100865.97;;;8.49;89.35
77450;BME280;66536;53.150;18.172;2024-03-02T07:22:59;100865.61;;;8.59;89.29
77450;BME280;66536;53.150;18.172;2024-03-02T07:25:25;100858.30;;;8.69;89.08
77450;BME280;66536;53.150;18.172;2024-03-02T07:27:51;100861.49;;;8.78;88.71
77450;BME280;66536;53.150;18.172;2024-03-02T07:30:18;100873.20;;;8.86;88.29
77450;BME280;66536;53.150;18.172;2024-03-02T07:32:45;100885.41;;;8.94;88.29
77450;BME280;66536;53.150;18.172;2024-03-02T07:35:12;100891.74;;;9.05;88.41
77450;BME280;66536;53.150;18.172;2024-03-02T07:37:39;100893.08;;;9.20;88.20
77450;BME280;66536;53.150;18.172;2024-03-02T07:40:07;100891.66;;;9.32;87.83
77450;BME280;66536;53.150;18.172;2024-03-02T07:42:38;100879.87;;;9.48;87.48
77450;BME280;66536;53.150;18.172;2024-03-02T07:45:05;100883.23;;;9.62;87.10
77450;BME280;66536;53.150;18.172;2024-03-02T07:47:34;100883.38;;;9.77;87.00
77450;BME280;66536;53.150;18.172;2024-03-02T07:50:00;100887.39;;;9.95;86.59
77450;BME280;66536;53.150;18.172;2024-03-02T07:52:27;100886.52;;;10.13;86.03
77450;BME280;66536;53.150;18.172;2024-03-02T07:54:53;100885.70;;;10.33;85.41
77450;BME280;66536;53.150;18.172;2024-03-02T07:57:19;100885.30;;;10.54;85.08
77450;BME280;66536;53.150;18.172;2024-03-02T07:59:45;100882.43;;;10.79;84.78
77450;BME280;66536;53.150;18.172;2024-03-02T08:02:12;100874.96;;;11.05;84.20
77450;BME280;66536;53.150;18.172;2024-03-02T08:04:39;100881.48;;;11.24;83.50
77450;BME280;66536;53.150;18.172;2024-03-02T08:07:05;100882.87;;;11.36;83.39
77450;BME280;66536;53.150;18.172;2024-03-02T08:09:32;100878.54;;;11.46;83.03
77450;BME280;66536;53.150;18.172;2024-03-02T08:11:58;100888.66;;;11.50;82.51
77450;BME280;66536;53.150;18.172;2024-03-02T08:14:26;100895.24;;;11.51;82.84
77450;BME280;66536;53.150;18.172;2024-03-02T08:16:52;100900.59;;;11.50;82.47
77450;BME280;66536;53.150;18.172;2024-03-02T08:19:18;100903.96;;;11.42;81.72
77450;BME280;66536;53.150;18.172;2024-03-02T08:21:45;100912.81;;;11.32;81.83
77450;BME280;66536;53.150;18.172;2024-03-02T08:24:11;100915.69;;;11.30;81.92
77450;BME280;66536;53.150;18.172;2024-03-02T08:26:37;100912.48;;;11.22;81.12
77450;BME280;66536;53.150;18.172;2024-03-02T08:29:03;100915.34;;;11.16;81.68
77450;BME280;66536;53.150;18.172;2024-03-02T08:31:30;100910.67;;;11.14;81.36
77450;BME280;66536;53.150;18.172;2024-03-02T08:33:56;100897.65;;;11.23;80.86
77450;BME280;66536;53.150;18.172;2024-03-02T08:36:23;100902.02;;;11.39;81.24
77450;BME280;66536;53.150;18.172;2024-03-02T08:38:50;100898.00;;;11.58;81.00
77450;BME280;66536;53.150;18.172;2024-03-02T08:41:16;100895.73;;;11.76;80.85
77450;BME280;66536;53.150;18.172;2024-03-02T08:43:42;100902.81;;;11.92;80.74
77450;BME280;66536;53.150;18.172;2024-03-02T08:46:08;100902.38;;;12.05;80.36
77450;BME280;66536;53.150;18.172;2024-03-02T08:48:35;100905.61;;;12.11;80.11
77450;BME280;66536;53.150;18.172;2024-03-02T08:51:01;100903.27;;;12.14;79.77
77450;BME280;66536;53.150;18.172;2024-03-02T08:53:28;100897.04;;;12.09;79.47
77450;BME280;66536;53.150;18.172;2024-03-02T08:55:54;100903.86;;;11.99;79.47
77450;BME280;66536;53.150;18.172;2024-03-02T08:58:21;100908.24;;;11.84;79.56
77450;BME280;66536;53.150;18.172;2024-03-02T09:00:47;100916.55;;;11.69;79.52
77450;BME280;66536;53.150;18.172;2024-03-02T09:03:14;100926.98;;;11.56;79.90
77450;BME280;66536;53.150;18.172;2024-03-02T09:05:49;100926.04;;;11.47;79.88
77450;BME280;66536;53.150;18.172;2024-03-02T09:08:15;100924.75;;;11.48;79.88
77450;BME280;66536;53.150;18.172;2024-03-02T09:10:41;100930.21;;;11.61;79.97
77450;BME280;66536;53.150;18.172;2024-03-02T09:13:07;100923.41;;;11.79;79.62
77450;BME280;66536;53.150;18.172;2024-03-02T09:15:33;100924.19;;;11.88;79.10
77450;BME280;66536;53.150;18.172;2024-03-02T09:18:03;100920.00;;;11.96;79.11
77450;BME280;66536;53.150;18.172;2024-03-02T09:20:30;100919.64;;;11.96;78.68
77450;BME280;66536;53.150;18.172;2024-03-02T09:22:58;100930.27;;;11.94;78.94
77450;BME280;66536;53.150;18.172;2024-03-02T09:25:25;100928.85;;;11.98;78.74
77450;BME280;66536;53.150;18.172;2024-03-02T09:27:51;100929.28;;;11.98;78.58
77450;BME280;66536;53.150;18.172;2024-03-02T09:30:18;100923.57;;;11.97;78.47
77450;BME280;66536;53.150;18.172;2024-03-02T09:32:45;100916.15;;;11.97;78.40
77450;BME280;66536;53.150;18.172;2024-03-02T09:35:11;100914.25;;;12.01;78.45
77450;BME280;66536;53.150;18.172;2024-03-02T09:37:38;100906.41;;;12.10;78.02
77450;BME280;66536;53.150;18.172;2024-03-02T09:40:04;100913.00;;;12.20;77.71
77450;BME280;66536;53.150;18.172;2024-03-02T09:42:33;100913.75;;;12.33;77.47
77450;BME280;66536;53.150;18.172;2024-03-02T09:45:00;100916.89;;;12.50;77.55
77450;BME280;66536;53.150;18.172;2024-03-02T09:47:26;100916.44;;;12.66;77.25
77450;BME280;66536;53.150;18.172;2024-03-02T09:49:53;100915.55;;;12.79;76.88
77450;BME280;66536;53.150;18.172;2024-03-02T09:52:22;100918.70;;;12.96;76.73
77450;BME280;66536;53.150;18.172;2024-03-02T09:54:52;100922.65;;;13.11;75.86
77450;BME280;66536;53.150;18.172;2024-03-02T09:57:18;100920.54;;;13.21;75.92
77450;BME280;66536;53.150;18.172;2024-03-02T09:59:44;100917.57;;;13.36;75.86
77450;BME280;66536;53.150;18.172;2024-03-02T10:02:11;100913.59;;;13.53;75.27
77450;BME280;66536;53.150;18.172;2024-03-02T10:04:37;100917.79;;;13.66;74.87
77450;BME280;66536;53.150;18.172;2024-03-02T10:07:14;100927.27;;;13.79;74.25
77450;BME280;66536;53.150;18.172;2024-03-02T10:09:42;100922.35;;;13.92;73.91
77450;BME280;66536;53.150;18.172;2024-03-02T10:12:10;100920.71;;;13.98;73.62
77450;BME280;66536;53.150;18.172;2024-03-02T10:14:38;100916.55;;;14.03;72.87
77450;BME280;66536;53.150;18.172;2024-03-02T10:17:12;100920.65;;;14.13;73.21
77450;BME280;66536;53.150;18.172;2024-03-02T10:19:40;100915.95;;;14.25;72.78
77450;BME280;66536;53.150;18.172;2024-03-02T10:22:08;100906.31;;;14.35;72.16
77450;BME280;66536;53.150;18.172;2024-03-02T10:24:37;100904.48;;;14.42;71.76
77450;BME280;66536;53.150;18.172;2024-03-02T10:27:08;100904.27;;;14.54;71.46
77450;BME280;66536;53.150;18.172;2024-03-02T10:29:37;100907.09;;;14.66;71.14
77450;BME280;66536;53.150;18.172;2024-03-02T10:32:04;100904.31;;;14.79;71.05
77450;BME280;66536;53.150;18.172;2024-03-02T10:34:32;100906.97;;;14.91;69.80
77450;BME280;66536;53.150;18.172;2024-03-02T10:36:59;100901.98;;;14.94;69.92
77450;BME280;66536;53.150;18.172;2024-03-02T10:39:25;100904.67;;;14.94;70.10
77450;BME280;66536;53.150;18.172;2024-03-02T10:41:52;100900.30;;;14.99;70.07
77450;BME280;66536;53.150;18.172;2024-03-02T10:44:19;100891.30;;;15.02;69.31
77450;BME280;66536;53.150;18.172;2024-03-02T10:46:47;100894.20;;;14.99;69.56
77450;BME280;66536;53.150;18.172;2024-03-02T10:49:13;100898.44;;;15.04;69.15
77450;BME280;66536;53.150;18.172;2024-03-02T10:51:39;100893.61;;;15.08;69.32
77450;BME280;66536;53.150;18.172;2024-03-02T10:54:05;100891.77;;;15.02;67.61
77450;BME280;66536;53.150;18.172;2024-03-02T10:56:38;100892.02;;;14.94;68.14
77450;BME280;66536;53.150;18.172;2024-03-02T10:59:27;100893.11;;;14.99;68.27
77450;BME280;66536;53.150;18.172;2024-03-02T11:01:56;100888.55;;;15.10;68.08
77450;BME280;66536;53.150;18.172;2024-03-02T11:04:27;100886.71;;;15.10;65.91
77450;BME280;66536;53.150;18.172;2024-03-02T11:07:04;100889.19;;;15.03;66.94
77450;BME280;66536;53.150;18.172;2024-03-02T11:09:34;100886.44;;;15.11;67.35
77450;BME280;66536;53.150;18.172;2024-03-02T11:12:19;100883.98;;;15.20;67.07
77450;BME280;66536;53.150;18.172;2024-03-02T11:14:45;100874.84;;;15.27;67.45
77450;BME280;66536;53.150;18.172;2024-03-02T11:17:14;100881.69;;;15.38;67.41
77450;BME280;66536;53.150;18.172;2024-03-02T11:19:42;100879.97;;;15.42;66.19
77450;BME280;66536;53.150;18.172;2024-03-02T11:22:09;100880.08;;;15.38;65.61
77450;BME280;66536;53.150;18.172;2024-03-02T11:24:36;100875.36;;;15.27;65.37
77450;BME280;66536;53.150;18.172;2024-03-02T11:27:04;100872.41;;;15.14;65.41
77450;BME280;66536;53.150;18.172;2024-03-02T11:29:43;100868.52;;;15.10;66.18
77450;BME280;66536;53.150;18.172;2024-03-02T11:32:16;100867.77;;;15.12;65.86
77450;BME280;66536;53.150;18.172;2024-03-02T11:34:47;100873.55;;;15.03;65.96
77450;BME280;66536;53.150;18.172;2024-03-02T11:37:17;100870.08;;;15.07;66.11
77450;BME280;66536;53.150;18.172;2024-03-02T11:39:44;100872.72;;;15.09;65.33
77450;BME280;66536;53.150;18.172;2024-03-02T11:42:12;100869.18;;;15.07;65.51
77450;BME280;66536;53.150;18.172;2024-03-02T11:44:44;100870.92;;;15.16;66.02
77450;BME280;66536;53.150;18.172;2024-03-02T11:47:12;100870.98;;;15.30;65.65
77450;BME280;66536;53.150;18.172;2024-03-02T11:49:46;100871.42;;;15.39;65.34
77450;BME280;66536;53.150;18.172;2024-03-02T11:52:15;100867.44;;;15.45;65.40
77450;BME280;66536;53.150;18.172;2024-03-02T11:54:44;100863.04;;;15.46;65.20
77450;BME280;66536;53.150;18.172;2024-03-02T11:57:13;100862.06;;;15.56;65.40
77450;BME280;66536;53.150;18.172;2024-03-02T11:59:41;100861.70;;;15.67;64.64
77450;BME280;66536;53.150;18.172;2024-03-02T12:02:15;100861.84;;;15.76;64.51
77450;BME280;66536;53.150;18.172;2024-03-02T12:04:43;100863.27;;;15.90;64.51
77450;BME280;66536;53.150;18.172;2024-03-02T12:07:11;100864.91;;;16.04;64.30
77450;BME280;66536;53.150;18.172;2024-03-02T12:09:38;100862.58;;;16.18;64.03
77450;BME280;66536;53.150;18.172;2024-03-02T12:12:07;100860.80;;;16.28;63.84
77450;BME280;66536;53.150;18.172;2024-03-02T12:14:35;100856.42;;;16.36;63.36
77450;BME280;66536;53.150;18.172;2024-03-02T12:17:02;100858.73;;;16.40;63.18
77450;BME280;66536;53.150;18.172;2024-03-02T12:19:29;100859.20;;;16.49;63.13
77450;BME280;66536;53.150;18.172;2024-03-02T12:21:56;100860.52;;;16.60;62.83
77450;BME280;66536;53.150;18.172;2024-03-02T12:24:23;100861.84;;;16.65;62.69
77450;BME280;66536;53.150;18.172;2024-03-02T12:26:50;100859.52;;;16.61;62.73
77450;BME280;66536;53.150;18.172;2024-03-02T12:29:19;100856.69;;;16.59;62.10
77450;BME280;66536;53.150;18.172;2024-03-02T12:31:50;100857.38;;;16.49;62.19
77450;BME280;66536;53.150;18.172;2024-03-02T12:34:18;100854.67;;;16.38;62.31
77450;BME280;66536;53.150;18.172;2024-03-02T12:36:46;100851.75;;;16.27;61.79
77450;BME280;66536;53.150;18.172;2024-03-02T12:39:16;100850.08;;;16.13;61.33
77450;BME280;66536;53.150;18.172;2024-03-02T12:41:44;100849.64;;;15.95;61.82
77450;BME280;66536;53.150;18.172;2024-03-02T12:44:10;100843.31;;;15.70;62.26
77450;BME280;66536;53.150;18.172;2024-03-02T12:46:37;100844.65;;;15.38;62.92
77450;BME280;66536;53.150;18.172;2024-03-02T12:49:13;100846.04;;;15.09;63.86
77450;BME280;66536;53.150;18.172;2024-03-02T12:51:40;100848.41;;;14.93;64.33